N98BC KOWB-KHSV
Flight info
| Callsign | N98BC |
|---|---|
| Flight time | 1h 13m |
| Altitude | 23000 |
| Route | KOWB BNA KHSV |
| Aircraft | PC12/L-V/N |
Departure
| Time | 2026-05-07 01:15 |
|---|---|
| Airport | Owensboro Daviess County Airport (KOWB) |
Arrival
| Time | 2026-05-07 02:29 |
|---|---|
| Airport | Huntsville International Airport (KHSV) |
| Time | Latitude | Longitude | Altitude | Speed | Heading |
|---|---|---|---|---|---|
| 2026-05-07 01:04 | 37.73785 | -87.16422 | 408 ft | 0 kts | 266° |
| 2026-05-07 01:10 | 37.73783 | -87.16482 | 408 ft | 15 kts | 268° |
| 2026-05-07 01:11 | 37.73752 | -87.16538 | 408 ft | 8 kts | 186° |
| 2026-05-07 01:11 | 37.73651 | -87.16535 | 407 ft | 20 kts | 178° |
| 2026-05-07 01:11 | 37.73523 | -87.16528 | 407 ft | 14 kts | 178° |
| 2026-05-07 01:11 | 37.73481 | -87.16525 | 407 ft | 9 kts | 178° |
| 2026-05-07 01:12 | 37.73378 | -87.16521 | 406 ft | 5 kts | 178° |
| 2026-05-07 01:12 | 37.73291 | -87.16515 | 406 ft | 23 kts | 175° |
| 2026-05-07 01:12 | 37.73137 | -87.16509 | 405 ft | 21 kts | 178° |
| 2026-05-07 01:12 | 37.73011 | -87.16503 | 404 ft | 25 kts | 177° |
| 2026-05-07 01:13 | 37.72866 | -87.16495 | 404 ft | 17 kts | 178° |
| 2026-05-07 01:13 | 37.72740 | -87.16496 | 403 ft | 15 kts | 200° |
| 2026-05-07 01:13 | 37.72712 | -87.16563 | 403 ft | 2 kts | 269° |
| 2026-05-07 01:13 | 37.72712 | -87.16564 | 403 ft | 0 kts | 269° |
| 2026-05-07 01:14 | 37.72709 | -87.16630 | 404 ft | 8 kts | 268° |
| 2026-05-07 01:14 | 37.72730 | -87.16672 | 404 ft | 0 kts | 1° |
| 2026-05-07 01:14 | 37.72749 | -87.16672 | 404 ft | 20 kts | 359° |
| 2026-05-07 01:15 | 37.73139 | -87.16690 | 405 ft | 89 kts | 357° |
| 2026-05-07 01:15 | 37.73872 | -87.16722 | 695 ft | 112 kts | 357° |
| 2026-05-07 01:15 | 37.74781 | -87.16762 | 1070 ft | 150 kts | 356° |
| 2026-05-07 01:15 | 37.75805 | -87.16824 | 2040 ft | 141 kts | 357° |
| 2026-05-07 01:16 | 37.76751 | -87.16891 | 3028 ft | 132 kts | 356° |
| 2026-05-07 01:16 | 37.77704 | -87.16955 | 3788 ft | 147 kts | 356° |
| 2026-05-07 01:16 | 37.78833 | -87.17027 | 4198 ft | 175 kts | 357° |
| 2026-05-07 01:16 | 37.80048 | -87.17100 | 5023 ft | 173 kts | 356° |
| 2026-05-07 01:17 | 37.81223 | -87.17152 | 5893 ft | 171 kts | 355° |
| 2026-05-07 01:17 | 37.82412 | -87.17147 | 6754 ft | 171 kts | 355° |
| 2026-05-07 01:17 | 37.83602 | -87.17077 | 7585 ft | 172 kts | 355° |
| 2026-05-07 01:17 | 37.84791 | -87.16877 | 8423 ft | 179 kts | 9° |
| 2026-05-07 01:18 | 37.85512 | -87.16285 | 8985 ft | 194 kts | 39° |
| 2026-05-07 01:18 | 37.86063 | -87.14693 | 9832 ft | 205 kts | 86° |
| 2026-05-07 01:18 | 37.85735 | -87.12985 | 10527 ft | 198 kts | 133° |
| 2026-05-07 01:18 | 37.84479 | -87.11516 | 11458 ft | 177 kts | 171° |
| 2026-05-07 01:19 | 37.83728 | -87.11085 | 11977 ft | 176 kts | 175° |
| 2026-05-07 01:19 | 37.82598 | -87.10447 | 12725 ft | 180 kts | 175° |
| 2026-05-07 01:19 | 37.81445 | -87.09778 | 13446 ft | 185 kts | 175° |
| 2026-05-07 01:19 | 37.80269 | -87.09079 | 14108 ft | 188 kts | 175° |
| 2026-05-07 01:20 | 37.79107 | -87.08409 | 14778 ft | 182 kts | 180° |
| 2026-05-07 01:20 | 37.77927 | -87.07806 | 15490 ft | 179 kts | 181° |
| 2026-05-07 01:20 | 37.76780 | -87.07193 | 16183 ft | 178 kts | 181° |
| 2026-05-07 01:20 | 37.75647 | -87.06559 | 16889 ft | 178 kts | 181° |
| 2026-05-07 01:21 | 37.74534 | -87.05963 | 17604 ft | 168 kts | 187° |
| 2026-05-07 01:21 | 37.73446 | -87.05474 | 18326 ft | 165 kts | 188° |
| 2026-05-07 01:21 | 37.72367 | -87.04975 | 18921 ft | 166 kts | 188° |
| 2026-05-07 01:21 | 37.71281 | -87.04457 | 19485 ft | 167 kts | 189° |
| 2026-05-07 01:22 | 37.70198 | -87.04037 | 20053 ft | 161 kts | 194° |
| 2026-05-07 01:22 | 37.69071 | -87.03666 | 20425 ft | 173 kts | 194° |
| 2026-05-07 01:22 | 37.67873 | -87.03308 | 20834 ft | 181 kts | 194° |
| 2026-05-07 01:22 | 37.66624 | -87.02968 | 21253 ft | 183 kts | 197° |
| 2026-05-07 01:23 | 37.65366 | -87.02766 | 21666 ft | 183 kts | 200° |
| 2026-05-07 01:23 | 37.64120 | -87.02705 | 22084 ft | 178 kts | 205° |
| 2026-05-07 01:23 | 37.62883 | -87.02739 | 22504 ft | 176 kts | 208° |
| 2026-05-07 01:23 | 37.61686 | -87.02907 | 22917 ft | 173 kts | 211° |
| 2026-05-07 01:24 | 37.60483 | -87.03141 | 23049 ft | 184 kts | 212° |
| 2026-05-07 01:24 | 37.59186 | -87.03441 | 23056 ft | 195 kts | 212° |
| 2026-05-07 01:24 | 37.57829 | -87.03785 | 23061 ft | 202 kts | 212° |
| 2026-05-07 01:24 | 37.56439 | -87.04156 | 23060 ft | 206 kts | 212° |
| 2026-05-07 01:25 | 37.55030 | -87.04545 | 23061 ft | 208 kts | 212° |
| 2026-05-07 01:25 | 37.53611 | -87.04943 | 23058 ft | 210 kts | 212° |
| 2026-05-07 01:25 | 37.52183 | -87.05349 | 23056 ft | 211 kts | 212° |
| 2026-05-07 01:25 | 37.50751 | -87.05759 | 23056 ft | 211 kts | 212° |
| 2026-05-07 01:26 | 37.49317 | -87.06170 | 23058 ft | 211 kts | 212° |
| 2026-05-07 01:26 | 37.47882 | -87.06584 | 23056 ft | 211 kts | 212° |
| 2026-05-07 01:26 | 37.46449 | -87.06999 | 23054 ft | 212 kts | 212° |
| 2026-05-07 01:26 | 37.45013 | -87.07415 | 23050 ft | 212 kts | 212° |
| 2026-05-07 01:27 | 37.43577 | -87.07832 | 23050 ft | 212 kts | 212° |
| 2026-05-07 01:27 | 37.42142 | -87.08250 | 23050 ft | 212 kts | 212° |
| 2026-05-07 01:27 | 37.40705 | -87.08671 | 23044 ft | 212 kts | 212° |
| 2026-05-07 01:27 | 37.39269 | -87.09094 | 23045 ft | 212 kts | 212° |
| 2026-05-07 01:28 | 37.37833 | -87.09517 | 23044 ft | 212 kts | 212° |
| 2026-05-07 01:28 | 37.36396 | -87.09940 | 23043 ft | 212 kts | 212° |
| 2026-05-07 01:28 | 37.34959 | -87.10365 | 23046 ft | 212 kts | 212° |
| 2026-05-07 01:28 | 37.33522 | -87.10792 | 23044 ft | 212 kts | 212° |
| 2026-05-07 01:29 | 37.31979 | -87.10961 | 23046 ft | 232 kts | 199° |
| 2026-05-07 01:29 | 37.30326 | -87.10752 | 23044 ft | 247 kts | 191° |
| 2026-05-07 01:29 | 37.28626 | -87.10298 | 23045 ft | 252 kts | 188° |
| 2026-05-07 01:29 | 37.26914 | -87.09792 | 23046 ft | 253 kts | 188° |
| 2026-05-07 01:30 | 37.25223 | -87.09286 | 23043 ft | 253 kts | 188° |
| 2026-05-07 01:30 | 37.23509 | -87.08774 | 23042 ft | 253 kts | 188° |
| 2026-05-07 01:30 | 37.21793 | -87.08264 | 23037 ft | 253 kts | 188° |
| 2026-05-07 01:30 | 37.20078 | -87.07757 | 23037 ft | 253 kts | 188° |
| 2026-05-07 01:31 | 37.18363 | -87.07254 | 23038 ft | 253 kts | 188° |
| 2026-05-07 01:31 | 37.16645 | -87.06752 | 23041 ft | 253 kts | 188° |
| 2026-05-07 01:31 | 37.14932 | -87.06253 | 23041 ft | 254 kts | 187° |
| 2026-05-07 01:31 | 37.13202 | -87.05555 | 23035 ft | 266 kts | 180° |
| 2026-05-07 01:32 | 37.11469 | -87.04683 | 23036 ft | 270 kts | 178° |
| 2026-05-07 01:32 | 37.09747 | -87.03624 | 23038 ft | 281 kts | 172° |
| 2026-05-07 01:32 | 37.08036 | -87.02413 | 23032 ft | 283 kts | 170° |
| 2026-05-07 01:32 | 37.06329 | -87.01176 | 23032 ft | 284 kts | 170° |
| 2026-05-07 01:33 | 37.04629 | -86.99879 | 23033 ft | 288 kts | 167° |
| 2026-05-07 01:33 | 37.02946 | -86.98499 | 23034 ft | 290 kts | 166° |
| 2026-05-07 01:33 | 37.01268 | -86.97105 | 23031 ft | 290 kts | 166° |
| 2026-05-07 01:33 | 36.99590 | -86.95710 | 23036 ft | 290 kts | 166° |
| 2026-05-07 01:34 | 36.97909 | -86.94313 | 23029 ft | 290 kts | 166° |
| 2026-05-07 01:34 | 36.96230 | -86.92921 | 23028 ft | 290 kts | 166° |
| 2026-05-07 01:34 | 36.94545 | -86.91526 | 23027 ft | 290 kts | 166° |
| 2026-05-07 01:34 | 36.92865 | -86.90137 | 23030 ft | 290 kts | 166° |
| 2026-05-07 01:35 | 36.91182 | -86.88747 | 23026 ft | 290 kts | 166° |
| 2026-05-07 01:35 | 36.89497 | -86.87359 | 23025 ft | 290 kts | 166° |
| 2026-05-07 01:35 | 36.87810 | -86.85970 | 23023 ft | 290 kts | 166° |
| 2026-05-07 01:35 | 36.86124 | -86.84584 | 23025 ft | 290 kts | 166° |
| 2026-05-07 01:36 | 36.84430 | -86.83249 | 23024 ft | 286 kts | 168° |
| 2026-05-07 01:36 | 36.82719 | -86.82004 | 23020 ft | 284 kts | 169° |
| 2026-05-07 01:36 | 36.81006 | -86.80781 | 23020 ft | 283 kts | 169° |
| 2026-05-07 01:36 | 36.79292 | -86.79563 | 23021 ft | 283 kts | 169° |
| 2026-05-07 01:37 | 36.77592 | -86.78463 | 23021 ft | 276 kts | 174° |
| 2026-05-07 01:37 | 36.75858 | -86.77468 | 23023 ft | 274 kts | 175° |
| 2026-05-07 01:37 | 36.74119 | -86.76498 | 23015 ft | 274 kts | 175° |
| 2026-05-07 01:37 | 36.72379 | -86.75535 | 23021 ft | 274 kts | 175° |
| 2026-05-07 01:38 | 36.70635 | -86.74571 | 23017 ft | 274 kts | 175° |
| 2026-05-07 01:38 | 36.68889 | -86.73631 | 23017 ft | 270 kts | 178° |
| 2026-05-07 01:38 | 36.67142 | -86.72824 | 23015 ft | 267 kts | 180° |
| 2026-05-07 01:38 | 36.65391 | -86.72063 | 23015 ft | 266 kts | 180° |
| 2026-05-07 01:39 | 36.63642 | -86.71312 | 23014 ft | 266 kts | 181° |
| 2026-05-07 01:39 | 36.61889 | -86.70561 | 23016 ft | 266 kts | 181° |
| 2026-05-07 01:39 | 36.60144 | -86.69935 | 23018 ft | 257 kts | 186° |
| 2026-05-07 01:39 | 36.58408 | -86.69475 | 23024 ft | 254 kts | 188° |
| 2026-05-07 01:40 | 36.56677 | -86.69052 | 23022 ft | 254 kts | 188° |
| 2026-05-07 01:40 | 36.54943 | -86.68636 | 23025 ft | 254 kts | 188° |
| 2026-05-07 01:40 | 36.53218 | -86.68273 | 23023 ft | 244 kts | 194° |
| 2026-05-07 01:40 | 36.51565 | -86.68265 | 23031 ft | 234 kts | 201° |
| 2026-05-07 01:41 | 36.49946 | -86.68387 | 23032 ft | 233 kts | 202° |
| 2026-05-07 01:41 | 36.48328 | -86.68534 | 23028 ft | 233 kts | 202° |
| 2026-05-07 01:41 | 36.46710 | -86.68687 | 23030 ft | 233 kts | 202° |
| 2026-05-07 01:41 | 36.45131 | -86.68941 | 23030 ft | 226 kts | 207° |
| 2026-05-07 01:42 | 36.43594 | -86.69296 | 23030 ft | 224 kts | 208° |
| 2026-05-07 01:42 | 36.42063 | -86.69671 | 23028 ft | 224 kts | 208° |
| 2026-05-07 01:42 | 36.40535 | -86.70051 | 23032 ft | 224 kts | 208° |
| 2026-05-07 01:42 | 36.39007 | -86.70432 | 23029 ft | 224 kts | 208° |
| 2026-05-07 01:43 | 36.37480 | -86.70814 | 23017 ft | 224 kts | 208° |
| 2026-05-07 01:43 | 36.35951 | -86.71195 | 23013 ft | 225 kts | 207° |
| 2026-05-07 01:43 | 36.34347 | -86.71374 | 23015 ft | 237 kts | 200° |
| 2026-05-07 01:43 | 36.32662 | -86.71277 | 23005 ft | 249 kts | 192° |
| 2026-05-07 01:44 | 36.30929 | -86.70932 | 23051 ft | 252 kts | 190° |
| 2026-05-07 01:44 | 36.29198 | -86.70599 | 23056 ft | 252 kts | 191° |
| 2026-05-07 01:44 | 36.27466 | -86.70274 | 23058 ft | 252 kts | 191° |
| 2026-05-07 01:44 | 36.25724 | -86.69861 | 23061 ft | 259 kts | 186° |
| 2026-05-07 01:45 | 36.23961 | -86.69257 | 23067 ft | 265 kts | 182° |
| 2026-05-07 01:45 | 36.22196 | -86.68582 | 23061 ft | 266 kts | 182° |
| 2026-05-07 01:45 | 36.20422 | -86.67893 | 23068 ft | 267 kts | 182° |
| 2026-05-07 01:45 | 36.18652 | -86.67205 | 23074 ft | 267 kts | 182° |
| 2026-05-07 01:46 | 36.16882 | -86.66514 | 23074 ft | 267 kts | 182° |
| 2026-05-07 01:46 | 36.15113 | -86.65821 | 23078 ft | 267 kts | 182° |
| 2026-05-07 01:46 | 36.13345 | -86.65142 | 23072 ft | 262 kts | 185° |
| 2026-05-07 01:46 | 36.11609 | -86.64819 | 23071 ft | 247 kts | 194° |
| 2026-05-07 01:47 | 36.09910 | -86.64703 | 23076 ft | 243 kts | 197° |
| 2026-05-07 01:47 | 36.08235 | -86.64690 | 23077 ft | 239 kts | 199° |
| 2026-05-07 01:47 | 36.06573 | -86.64728 | 23074 ft | 239 kts | 200° |
| 2026-05-07 01:47 | 36.04962 | -86.64868 | 23075 ft | 233 kts | 204° |
| 2026-05-07 01:48 | 36.03354 | -86.65092 | 23074 ft | 232 kts | 205° |
| 2026-05-07 01:48 | 36.01749 | -86.65334 | 23067 ft | 232 kts | 205° |
| 2026-05-07 01:48 | 36.00158 | -86.65607 | 23043 ft | 229 kts | 207° |
| 2026-05-07 01:48 | 35.98603 | -86.65970 | 23042 ft | 226 kts | 208° |
| 2026-05-07 01:49 | 35.97060 | -86.66357 | 23043 ft | 226 kts | 208° |
| 2026-05-07 01:49 | 35.95519 | -86.66750 | 23044 ft | 227 kts | 208° |
| 2026-05-07 01:49 | 35.93972 | -86.67148 | 23039 ft | 227 kts | 208° |
| 2026-05-07 01:49 | 35.92428 | -86.67550 | 23038 ft | 227 kts | 208° |
| 2026-05-07 01:50 | 35.90884 | -86.67953 | 23035 ft | 227 kts | 209° |
| 2026-05-07 01:50 | 35.87866 | -86.68900 | 23035 ft | 220 kts | 214° |
| 2026-05-07 01:50 | 35.86415 | -86.69504 | 23034 ft | 220 kts | 214° |
| 2026-05-07 01:51 | 35.84972 | -86.70120 | 23029 ft | 220 kts | 214° |
| 2026-05-07 01:51 | 35.83527 | -86.70741 | 23029 ft | 220 kts | 215° |
| 2026-05-07 01:51 | 35.82082 | -86.71363 | 23027 ft | 220 kts | 214° |
| 2026-05-07 01:51 | 35.80634 | -86.71989 | 23026 ft | 220 kts | 214° |
| 2026-05-07 01:52 | 35.79139 | -86.72511 | 23020 ft | 234 kts | 204° |
| 2026-05-07 01:52 | 35.77464 | -86.72569 | 23014 ft | 245 kts | 196° |
| 2026-05-07 01:52 | 35.75746 | -86.72481 | 23012 ft | 248 kts | 195° |
| 2026-05-07 01:52 | 35.74019 | -86.72371 | 23010 ft | 249 kts | 195° |
| 2026-05-07 01:53 | 35.72268 | -86.72267 | 22761 ft | 255 kts | 195° |
| 2026-05-07 01:53 | 35.70483 | -86.72177 | 22506 ft | 258 kts | 195° |
| 2026-05-07 01:53 | 35.68683 | -86.72092 | 22249 ft | 259 kts | 195° |
| 2026-05-07 01:53 | 35.66877 | -86.72009 | 21994 ft | 260 kts | 195° |
| 2026-05-07 01:54 | 35.65097 | -86.71927 | 21749 ft | 260 kts | 195° |
| 2026-05-07 01:54 | 35.63293 | -86.71844 | 21498 ft | 260 kts | 195° |
| 2026-05-07 01:54 | 35.61486 | -86.71762 | 21247 ft | 259 kts | 195° |
| 2026-05-07 01:54 | 35.59683 | -86.71679 | 20972 ft | 260 kts | 195° |
| 2026-05-07 01:55 | 35.57872 | -86.71599 | 20679 ft | 260 kts | 195° |
| 2026-05-07 01:55 | 35.56063 | -86.71521 | 20392 ft | 260 kts | 195° |
| 2026-05-07 01:55 | 35.54251 | -86.71443 | 20104 ft | 260 kts | 195° |
| 2026-05-07 01:55 | 35.52446 | -86.71365 | 19819 ft | 259 kts | 195° |
| 2026-05-07 01:56 | 35.50643 | -86.71286 | 19535 ft | 259 kts | 195° |
| 2026-05-07 01:56 | 35.48847 | -86.71206 | 19257 ft | 258 kts | 195° |
| 2026-05-07 01:56 | 35.47054 | -86.71124 | 18968 ft | 258 kts | 195° |
| 2026-05-07 01:56 | 35.45259 | -86.71044 | 18623 ft | 259 kts | 195° |
| 2026-05-07 01:57 | 35.43462 | -86.70965 | 18284 ft | 258 kts | 195° |
| 2026-05-07 01:57 | 35.41671 | -86.70890 | 17891 ft | 257 kts | 194° |
| 2026-05-07 01:57 | 35.39885 | -86.70831 | 17500 ft | 256 kts | 194° |
| 2026-05-07 01:57 | 35.38105 | -86.70790 | 17111 ft | 256 kts | 194° |
| 2026-05-07 01:58 | 35.36329 | -86.70766 | 16740 ft | 255 kts | 194° |
| 2026-05-07 01:58 | 35.34555 | -86.70759 | 16358 ft | 254 kts | 194° |
| 2026-05-07 01:58 | 35.32791 | -86.70773 | 15992 ft | 254 kts | 194° |
| 2026-05-07 01:58 | 35.31025 | -86.70807 | 15626 ft | 253 kts | 194° |
| 2026-05-07 01:59 | 35.29261 | -86.70864 | 15262 ft | 253 kts | 194° |
| 2026-05-07 01:59 | 35.27503 | -86.70945 | 14904 ft | 253 kts | 194° |
| 2026-05-07 01:59 | 35.25747 | -86.71049 | 14551 ft | 253 kts | 194° |
| 2026-05-07 01:59 | 35.23994 | -86.71180 | 14203 ft | 252 kts | 194° |
| 2026-05-07 02:00 | 35.22243 | -86.71333 | 13854 ft | 254 kts | 194° |
| 2026-05-07 02:00 | 35.20469 | -86.71516 | 13478 ft | 257 kts | 194° |
| 2026-05-07 02:00 | 35.18691 | -86.71721 | 13092 ft | 257 kts | 194° |
| 2026-05-07 02:00 | 35.16914 | -86.71942 | 12716 ft | 256 kts | 194° |
| 2026-05-07 02:01 | 35.15156 | -86.72175 | 12413 ft | 252 kts | 195° |
| 2026-05-07 02:01 | 35.13426 | -86.72411 | 12229 ft | 248 kts | 195° |
| 2026-05-07 02:01 | 35.11717 | -86.72650 | 12059 ft | 247 kts | 195° |
| 2026-05-07 02:01 | 35.10016 | -86.72895 | 11913 ft | 245 kts | 195° |
| 2026-05-07 02:02 | 35.08328 | -86.73142 | 11781 ft | 244 kts | 195° |
| 2026-05-07 02:02 | 35.06644 | -86.73393 | 11659 ft | 244 kts | 195° |
| 2026-05-07 02:02 | 35.04965 | -86.73649 | 11537 ft | 243 kts | 195° |
| 2026-05-07 02:02 | 35.03295 | -86.73911 | 11415 ft | 242 kts | 195° |
| 2026-05-07 02:03 | 35.01627 | -86.74176 | 11290 ft | 242 kts | 195° |
| 2026-05-07 02:03 | 34.99961 | -86.74440 | 11168 ft | 241 kts | 195° |
| 2026-05-07 02:03 | 34.98298 | -86.74704 | 11023 ft | 241 kts | 195° |
| 2026-05-07 02:03 | 34.96733 | -86.75193 | 10849 ft | 232 kts | 210° |
| 2026-05-07 02:04 | 34.95359 | -86.76190 | 10686 ft | 229 kts | 221° |
| 2026-05-07 02:04 | 34.94129 | -86.77416 | 10459 ft | 229 kts | 224° |
| 2026-05-07 02:04 | 34.92922 | -86.78700 | 10202 ft | 230 kts | 225° |
| 2026-05-07 02:04 | 34.91725 | -86.79995 | 9949 ft | 231 kts | 225° |
| 2026-05-07 02:05 | 34.90533 | -86.81295 | 9680 ft | 230 kts | 225° |
| 2026-05-07 02:05 | 34.89342 | -86.82601 | 9395 ft | 231 kts | 225° |
| 2026-05-07 02:05 | 34.88147 | -86.83915 | 9113 ft | 232 kts | 225° |
| 2026-05-07 02:05 | 34.86952 | -86.85234 | 8848 ft | 232 kts | 225° |
| 2026-05-07 02:06 | 34.85751 | -86.86563 | 8565 ft | 234 kts | 225° |
| 2026-05-07 02:06 | 34.84549 | -86.87895 | 8285 ft | 233 kts | 225° |
| 2026-05-07 02:06 | 34.83355 | -86.89222 | 8012 ft | 233 kts | 225° |
| 2026-05-07 02:06 | 34.82034 | -86.90359 | 7738 ft | 236 kts | 210° |
| 2026-05-07 02:07 | 34.80524 | -86.91156 | 7474 ft | 238 kts | 205° |
| 2026-05-07 02:07 | 34.77435 | -86.92658 | 6956 ft | 241 kts | 205° |
| 2026-05-07 02:07 | 34.75879 | -86.93414 | 6698 ft | 241 kts | 205° |
| 2026-05-07 02:08 | 34.74327 | -86.94181 | 6439 ft | 241 kts | 205° |
| 2026-05-07 02:08 | 34.73280 | -86.94698 | 6263 ft | 240 kts | 205° |
| 2026-05-07 02:08 | 34.71735 | -86.95463 | 5986 ft | 239 kts | 205° |
| 2026-05-07 02:08 | 34.70198 | -86.96222 | 5709 ft | 239 kts | 205° |
| 2026-05-07 02:09 | 34.68687 | -86.96969 | 5442 ft | 237 kts | 205° |
| 2026-05-07 02:09 | 34.67167 | -86.97726 | 5177 ft | 236 kts | 205° |
| 2026-05-07 02:09 | 34.65653 | -86.98483 | 4987 ft | 234 kts | 205° |
| 2026-05-07 02:09 | 34.64085 | -86.98983 | 4778 ft | 237 kts | 185° |
| 2026-05-07 02:10 | 34.62437 | -86.98852 | 4575 ft | 238 kts | 175° |
| 2026-05-07 02:10 | 34.60794 | -86.98643 | 4377 ft | 236 kts | 177° |
| 2026-05-07 02:10 | 34.59220 | -86.98457 | 4200 ft | 223 kts | 177° |
| 2026-05-07 02:10 | 34.57694 | -86.98272 | 4021 ft | 219 kts | 177° |
| 2026-05-07 02:11 | 34.56158 | -86.98089 | 3846 ft | 221 kts | 177° |
| 2026-05-07 02:11 | 34.54641 | -86.97908 | 3668 ft | 218 kts | 177° |
| 2026-05-07 02:11 | 34.53136 | -86.97729 | 3492 ft | 216 kts | 178° |
| 2026-05-07 02:11 | 34.51642 | -86.97551 | 3320 ft | 218 kts | 176° |
| 2026-05-07 02:12 | 34.50117 | -86.97380 | 3151 ft | 221 kts | 177° |
| 2026-05-07 02:12 | 34.48590 | -86.97220 | 3006 ft | 220 kts | 177° |
| 2026-05-07 02:12 | 34.47070 | -86.97067 | 2987 ft | 218 kts | 176° |
| 2026-05-07 02:12 | 34.45562 | -86.96907 | 2981 ft | 216 kts | 176° |
| 2026-05-07 02:13 | 34.44075 | -86.96759 | 2991 ft | 214 kts | 176° |
| 2026-05-07 02:13 | 34.42589 | -86.96608 | 2993 ft | 216 kts | 178° |
| 2026-05-07 02:13 | 34.41087 | -86.96441 | 2998 ft | 217 kts | 176° |
| 2026-05-07 02:13 | 34.39585 | -86.96273 | 2986 ft | 212 kts | 177° |
| 2026-05-07 02:14 | 34.38139 | -86.96121 | 2986 ft | 210 kts | 178° |
| 2026-05-07 02:14 | 34.36674 | -86.95976 | 2997 ft | 212 kts | 177° |
| 2026-05-07 02:14 | 34.35257 | -86.95820 | 2989 ft | 196 kts | 178° |
| 2026-05-07 02:14 | 34.33907 | -86.95659 | 2990 ft | 197 kts | 178° |
| 2026-05-07 02:15 | 34.32509 | -86.95489 | 2988 ft | 202 kts | 176° |
| 2026-05-07 02:15 | 34.31096 | -86.95332 | 3004 ft | 208 kts | 177° |
| 2026-05-07 02:15 | 34.29642 | -86.95175 | 3010 ft | 211 kts | 178° |
| 2026-05-07 02:15 | 34.28180 | -86.95006 | 3007 ft | 210 kts | 177° |
| 2026-05-07 02:16 | 34.26730 | -86.94817 | 3003 ft | 210 kts | 171° |
| 2026-05-07 02:16 | 34.25464 | -86.93989 | 2987 ft | 215 kts | 135° |
| 2026-05-07 02:16 | 34.24799 | -86.92352 | 2988 ft | 219 kts | 99° |
| 2026-05-07 02:16 | 34.25018 | -86.90582 | 2984 ft | 220 kts | 64° |
| 2026-05-07 02:17 | 34.26000 | -86.89192 | 2996 ft | 218 kts | 39° |
| 2026-05-07 02:17 | 34.27189 | -86.88051 | 3006 ft | 218 kts | 36° |
| 2026-05-07 02:17 | 34.28380 | -86.86930 | 3005 ft | 208 kts | 36° |
| 2026-05-07 02:17 | 34.29351 | -86.85938 | 2975 ft | 166 kts | 42° |
| 2026-05-07 02:18 | 34.30139 | -86.85010 | 2990 ft | 154 kts | 43° |
| 2026-05-07 02:18 | 34.30865 | -86.84161 | 2992 ft | 152 kts | 42° |
| 2026-05-07 02:18 | 34.31624 | -86.83281 | 2953 ft | 151 kts | 42° |
| 2026-05-07 02:18 | 34.32381 | -86.82400 | 2930 ft | 151 kts | 42° |
| 2026-05-07 02:19 | 34.33129 | -86.81522 | 2900 ft | 150 kts | 42° |
| 2026-05-07 02:19 | 34.33917 | -86.80684 | 2858 ft | 151 kts | 35° |
| 2026-05-07 02:19 | 34.34726 | -86.79872 | 2802 ft | 151 kts | 38° |
| 2026-05-07 02:19 | 34.35538 | -86.79071 | 2757 ft | 150 kts | 33° |
| 2026-05-07 02:20 | 34.36466 | -86.78542 | 2629 ft | 147 kts | 9° |
| 2026-05-07 02:20 | 34.37427 | -86.78455 | 2465 ft | 130 kts | 1° |
| 2026-05-07 02:20 | 34.38264 | -86.78410 | 2388 ft | 116 kts | 0° |
| 2026-05-07 02:20 | 34.39084 | -86.78362 | 2285 ft | 118 kts | 1° |
| 2026-05-07 02:21 | 34.39904 | -86.78306 | 2229 ft | 118 kts | 1° |
| 2026-05-07 02:21 | 34.40729 | -86.78278 | 2236 ft | 120 kts | 0° |
| 2026-05-07 02:21 | 34.41560 | -86.78280 | 2232 ft | 119 kts | 359° |
| 2026-05-07 02:21 | 34.42370 | -86.78288 | 2228 ft | 113 kts | 359° |
| 2026-05-07 02:22 | 34.43151 | -86.78295 | 2224 ft | 113 kts | 359° |
| 2026-05-07 02:22 | 34.43937 | -86.78316 | 2217 ft | 110 kts | 355° |
| 2026-05-07 02:22 | 34.44696 | -86.78356 | 2210 ft | 110 kts | 356° |
| 2026-05-07 02:22 | 34.45457 | -86.78391 | 2193 ft | 109 kts | 355° |
| 2026-05-07 02:23 | 34.46206 | -86.78439 | 2184 ft | 106 kts | 354° |
| 2026-05-07 02:23 | 34.46947 | -86.78500 | 2181 ft | 107 kts | 354° |
| 2026-05-07 02:23 | 34.47685 | -86.78564 | 2166 ft | 105 kts | 355° |
| 2026-05-07 02:23 | 34.48416 | -86.78620 | 2199 ft | 110 kts | 356° |
| 2026-05-07 02:24 | 34.49184 | -86.78595 | 2230 ft | 113 kts | 0° |
| 2026-05-07 02:24 | 34.49972 | -86.78474 | 2234 ft | 111 kts | 5° |
| 2026-05-07 02:24 | 34.50747 | -86.78395 | 2249 ft | 111 kts | 2° |
| 2026-05-07 02:24 | 34.51508 | -86.78330 | 2239 ft | 107 kts | 1° |
| 2026-05-07 02:25 | 34.52250 | -86.78272 | 2224 ft | 107 kts | 0° |
| 2026-05-07 02:25 | 34.52999 | -86.78272 | 2235 ft | 109 kts | 358° |
| 2026-05-07 02:25 | 34.53748 | -86.78264 | 2235 ft | 106 kts | 358° |
| 2026-05-07 02:25 | 34.54477 | -86.78259 | 2229 ft | 103 kts | 358° |
| 2026-05-07 02:26 | 34.55192 | -86.78258 | 2224 ft | 103 kts | 358° |
| 2026-05-07 02:26 | 34.55922 | -86.78259 | 2116 ft | 106 kts | 358° |
| 2026-05-07 02:26 | 34.56660 | -86.78261 | 1975 ft | 106 kts | 358° |
| 2026-05-07 02:26 | 34.57367 | -86.78322 | 1816 ft | 100 kts | 356° |
| 2026-05-07 02:27 | 34.58053 | -86.78387 | 1661 ft | 99 kts | 357° |
| 2026-05-07 02:27 | 34.58727 | -86.78394 | 1512 ft | 101 kts | 1° |
| 2026-05-07 02:27 | 34.59426 | -86.78384 | 1347 ft | 98 kts | 3° |
| 2026-05-07 02:27 | 34.60090 | -86.78341 | 1119 ft | 93 kts | 5° |
| 2026-05-07 02:28 | 34.60737 | -86.78308 | 876 ft | 93 kts | 2° |
| 2026-05-07 02:28 | 34.61375 | -86.78289 | 717 ft | 90 kts | 3° |
| 2026-05-07 02:28 | 34.61973 | -86.78276 | 630 ft | 80 kts | 4° |
| 2026-05-07 02:28 | 34.62476 | -86.78268 | 617 ft | 67 kts | 6° |
| 2026-05-07 02:29 | 34.62746 | -86.78260 | 620 ft | 20 kts | 359° |
| 2026-05-07 02:29 | 34.62952 | -86.78255 | 623 ft | 35 kts | 355° |
| 2026-05-07 02:29 | 34.63213 | -86.78251 | 625 ft | 41 kts | 0° |
| 2026-05-07 02:29 | 34.63422 | -86.78240 | 634 ft | 15 kts | 16° |
| 2026-05-07 02:30 | 34.63464 | -86.78140 | 627 ft | 20 kts | 90° |
| 2026-05-07 02:30 | 34.63513 | -86.77996 | 631 ft | 24 kts | 6° |
| 2026-05-07 02:30 | 34.63701 | -86.77990 | 626 ft | 20 kts | 359° |
| 2026-05-07 02:30 | 34.63827 | -86.77986 | 629 ft | 25 kts | 1° |
| 2026-05-07 02:31 | 34.64008 | -86.77983 | 629 ft | 23 kts | 360° |
| 2026-05-07 02:31 | 34.64209 | -86.77981 | 627 ft | 33 kts | 359° |
| 2026-05-07 02:31 | 34.64348 | -86.77949 | 630 ft | 18 kts | 38° |
| 2026-05-07 02:31 | 34.64408 | -86.77862 | 637 ft | 13 kts | 51° |
| 2026-05-07 02:32 | 34.64489 | -86.77745 | 629 ft | 16 kts | 52° |
| 2026-05-07 02:32 | 34.64501 | -86.77607 | 633 ft | 23 kts | 91° |
| 2026-05-07 02:32 | 34.64498 | -86.77452 | 626 ft | 10 kts | 90° |
| 2026-05-07 02:32 | 34.64496 | -86.77292 | 624 ft | 22 kts | 92° |
| 2026-05-07 02:33 | 34.64494 | -86.77147 | 618 ft | 9 kts | 93° |
| 2026-05-07 02:33 | 34.64492 | -86.77009 | 614 ft | 20 kts | 91° |
| 2026-05-07 02:33 | 34.64490 | -86.76873 | 610 ft | 12 kts | 88° |
| 2026-05-07 02:33 | 34.64538 | -86.76838 | 611 ft | 12 kts | 3° |
| 2026-05-07 02:34 | 34.64678 | -86.76834 | 614 ft | 23 kts | 1° |
| 2026-05-07 02:34 | 34.64776 | -86.76833 | 614 ft | 12 kts | 1° |
| 2026-05-07 02:34 | 34.64854 | -86.76827 | 614 ft | 11 kts | 15° |
| 2026-05-07 02:34 | 34.64874 | -86.76833 | 614 ft | 0 kts | 270° |